Time;durP1;ratioP1;P1;durP2;ratioP2;P2;SDS_P1;SDS_P2;PMS_P1;PMS_P2;Temp;Humidity;BMP_temperature;BMP_pressure;BME280_temperature;BME280_humidity;BME280_pressure;Samples;Min_cycle;Max_cycle;Signal;HPM_P1;HPM_P2
2024/02/01 00:01:52;;;;;;;6.88;3.42;;;9.30;87.10;;;;;;5034629;28;20147;-65
2024/02/01 00:04:18;;;;;;;4.60;3.05;;;9.30;87.10;;;;;;5038589;28;20061;-65
2024/02/01 00:06:50;;;;;;;3.63;2.13;;;9.30;87.60;;;;;;5040293;28;20031;-65
2024/02/01 00:09:16;;;;;;;7.07;2.95;;;9.30;87.50;;;;;;5038244;28;20472;-64
2024/02/01 00:11:42;;;;;;;4.80;2.75;;;9.30;87.60;;;;;;5037397;28;20014;-64
2024/02/01 00:14:08;;;;;;;6.75;2.38;;;9.40;87.50;;;;;;5031734;28;20531;-64
2024/02/01 00:16:34;;;;;;;6.93;3.65;;;9.40;87.60;;;;;;5034533;28;20013;-64
2024/02/01 00:18:59;;;;;;;3.70;2.63;;;9.40;87.70;;;;;;5013354;28;20440;-64
2024/02/01 00:21:25;;;;;;;4.70;2.35;;;9.40;87.70;;;;;;5032487;28;20037;-64
2024/02/01 00:23:51;;;;;;;4.15;2.65;;;9.40;87.60;;;;;;5034323;28;20025;-64
2024/02/01 00:26:16;;;;;;;3.70;2.60;;;9.40;87.70;;;;;;5030232;28;20438;-63
2024/02/01 00:28:42;;;;;;;4.80;2.60;;;9.50;87.70;;;;;;5039030;28;20056;-64
2024/02/01 00:31:08;;;;;;;6.47;3.05;;;9.50;87.80;;;;;;5040123;28;20103;-64
2024/02/01 00:33:34;;;;;;;6.75;2.80;;;9.50;87.90;;;;;;5032767;28;20072;-64
2024/02/01 00:35:59;;;;;;;5.45;3.00;;;9.50;88.00;;;;;;5033709;28;20029;-65
2024/02/01 00:38:25;;;;;;;7.25;3.80;;;9.60;88.20;;;;;;5031715;28;20514;-65
2024/02/01 00:40:51;;;;;;;4.50;2.92;;;9.60;88.20;;;;;;5028913;28;20034;-65
2024/02/01 00:43:16;;;;;;;6.72;3.33;;;9.60;88.20;;;;;;5028775;28;20034;-65
2024/02/01 00:45:42;;;;;;;4.55;2.65;;;9.70;88.20;;;;;;5031371;28;20018;-65
2024/02/01 00:48:08;;;;;;;4.40;2.92;;;9.70;88.40;;;;;;5029198;28;20353;-65
2024/02/01 00:50:33;;;;;;;7.88;3.70;;;9.70;88.30;;;;;;5030794;28;20044;-65
2024/02/01 00:52:59;;;;;;;3.15;2.58;;;9.70;88.80;;;;;;5034167;28;20051;-65
2024/02/01 00:55:25;;;;;;;5.47;3.00;;;9.70;88.70;;;;;;5027265;28;20328;-64
2024/02/01 00:57:51;;;;;;;4.55;3.08;;;9.80;88.70;;;;;;5029960;28;20030;-65
2024/02/01 01:00:16;;;;;;;5.20;2.88;;;9.80;88.80;;;;;;5030100;28;20358;-65
2024/02/01 01:02:42;;;;;;;3.85;2.75;;;9.80;88.90;;;;;;5032226;28;20034;-64
2024/02/01 01:05:08;;;;;;;5.78;3.38;;;9.80;89.00;;;;;;5029967;28;20025;-65
2024/02/01 01:07:34;;;;;;;7.50;2.78;;;9.90;89.20;;;;;;5033161;28;20022;-64
2024/02/01 01:10:00;;;;;;;6.68;3.17;;;9.90;89.50;;;;;;5031565;28;20040;-64
2024/02/01 01:12:26;;;;;;;7.10;3.65;;;9.90;89.70;;;;;;5028438;28;20064;-65
2024/02/01 01:14:51;;;;;;;2.92;2.50;;;9.90;90.00;;;;;;5036107;28;20385;-65
2024/02/01 01:17:17;;;;;;;7.18;3.72;;;9.90;89.90;;;;;;5031710;28;20049;-65
2024/02/01 01:19:43;;;;;;;4.75;2.83;;;9.90;90.10;;;;;;5032226;28;20029;-65
2024/02/01 01:22:09;;;;;;;8.75;3.38;;;9.90;90.10;;;;;;5033550;28;20029;-65
2024/02/01 01:24:34;;;;;;;5.60;3.55;;;9.90;90.10;;;;;;5059385;28;20037;-65
2024/02/01 01:27:00;;;;;;;4.00;3.13;;;9.90;90.10;;;;;;5030146;28;20489;-65
2024/02/01 01:29:26;;;;;;;5.97;3.17;;;10.00;90.10;;;;;;5028939;28;20056;-65
2024/02/01 01:31:51;;;;;;;5.95;2.50;;;10.00;90.20;;;;;;5040949;28;20021;-65
2024/02/01 01:34:17;;;;;;;9.90;3.63;;;10.00;90.40;;;;;;5041605;28;20041;-65
2024/02/01 01:36:43;;;;;;;5.28;3.17;;;10.00;90.30;;;;;;5035563;28;20021;-65
2024/02/01 01:39:11;;;;;;;5.90;2.80;;;10.00;90.20;;;;;;5033360;28;20040;-64
2024/02/01 01:41:43;;;;;;;6.50;3.13;;;10.00;90.40;;;;;;5033696;28;20358;-65
2024/02/01 01:44:09;;;;;;;5.00;3.03;;;10.10;90.40;;;;;;5031154;28;20049;-65
2024/02/01 01:46:35;;;;;;;6.90;3.42;;;10.10;90.30;;;;;;5036919;28;20026;-65
2024/02/01 01:49:00;;;;;;;3.92;2.67;;;10.10;90.30;;;;;;5040000;28;20040;-65
2024/02/01 01:51:27;;;;;;;5.72;2.40;;;10.10;90.40;;;;;;5037529;28;20017;-65
2024/02/01 01:53:56;;;;;;;9.02;3.20;;;10.20;90.40;;;;;;5035350;28;20040;-65
2024/02/01 01:56:22;;;;;;;5.88;3.28;;;10.20;90.40;;;;;;5033779;28;20021;-65
2024/02/01 01:58:49;;;;;;;7.07;2.88;;;10.20;90.50;;;;;;5036645;28;20033;-64
2024/02/01 02:01:15;;;;;;;5.57;3.35;;;10.20;90.50;;;;;;5032342;28;20049;-65
2024/02/01 02:03:43;;;;;;;6.15;2.60;;;10.20;90.50;;;;;;5037394;28;20034;-65
2024/02/01 02:06:09;;;;;;;3.90;2.78;;;10.30;90.50;;;;;;5036545;28;20099;-65
2024/02/01 02:08:35;;;;;;;2.30;1.83;;;10.30;90.50;;;;;;5038279;28;20503;-65
2024/02/01 02:11:01;;;;;;;4.80;2.05;;;10.30;90.40;;;;;;5036375;28;20423;-65
2024/02/01 02:13:27;;;;;;;3.63;2.38;;;10.40;90.40;;;;;;5041472;28;20036;-65
2024/02/01 02:15:52;;;;;;;3.58;2.30;;;10.40;90.40;;;;;;5036361;28;20028;-65
2024/02/01 02:18:18;;;;;;;5.47;2.67;;;10.50;90.40;;;;;;5040024;28;20104;-65
2024/02/01 02:20:47;;;;;;;3.10;2.15;;;10.50;90.40;;;;;;5034953;28;20036;-65
2024/02/01 02:23:13;;;;;;;3.78;2.10;;;10.50;90.30;;;;;;5033526;28;20026;-64
2024/02/01 02:25:39;;;;;;;3.17;1.83;;;10.50;90.50;;;;;;5035243;28;20060;-65
2024/02/01 02:28:05;;;;;;;2.70;1.83;;;10.60;90.20;;;;;;5042595;28;20083;-65
2024/02/01 02:30:31;;;;;;;2.28;1.65;;;10.60;90.20;;;;;;5038163;28;20533;-65
2024/02/01 02:32:57;;;;;;;2.08;1.50;;;10.60;90.20;;;;;;5038312;28;20489;-64
2024/02/01 02:35:23;;;;;;;2.97;1.77;;;10.60;90.20;;;;;;5030564;28;20041;-65
2024/02/01 02:37:52;;;;;;;3.28;2.28;;;10.60;90.20;;;;;;5039355;28;20021;-64
2024/02/01 02:40:19;;;;;;;3.63;1.85;;;10.70;90.20;;;;;;5032324;28;20033;-64
2024/02/01 02:42:46;;;;;;;2.80;2.17;;;10.70;90.30;;;;;;5042976;28;20457;-64
2024/02/01 02:45:12;;;;;;;2.47;2.22;;;10.70;90.30;;;;;;5039286;28;20031;-65
2024/02/01 02:47:38;;;;;;;3.63;2.00;;;10.70;90.40;;;;;;5036925;28;20113;-65
2024/02/01 02:50:06;;;;;;;2.63;2.08;;;10.70;90.40;;;;;;5032099;28;20044;-65
2024/02/01 02:52:32;;;;;;;4.78;2.20;;;10.80;90.40;;;;;;5039830;28;20031;-65
2024/02/01 02:54:58;;;;;;;3.55;1.98;;;10.80;90.30;;;;;;5033930;28;20117;-65
2024/02/01 02:57:24;;;;;;;3.28;2.45;;;10.80;90.30;;;;;;5031057;28;20128;-65
2024/02/01 02:59:50;;;;;;;7.05;2.17;;;10.80;90.30;;;;;;5038337;28;20111;-65
2024/02/01 03:02:16;;;;;;;5.53;2.40;;;10.80;90.20;;;;;;5037565;28;20040;-64
2024/02/01 03:04:41;;;;;;;2.00;1.40;;;10.80;90.20;;;;;;5041632;28;20033;-63
2024/02/01 03:07:08;;;;;;;4.25;2.20;;;10.90;90.20;;;;;;5043440;28;20067;-64
2024/02/01 03:09:37;;;;;;;6.93;2.45;;;10.90;90.20;;;;;;5040534;28;20488;-64
2024/02/01 03:12:07;;;;;;;2.05;1.55;;;10.90;90.20;;;;;;5030904;28;20389;-63
2024/02/01 03:14:42;;;;;;;4.53;2.58;;;10.90;90.10;;;;;;5045586;28;20048;-63
2024/02/01 03:17:09;;;;;;;5.20;1.58;;;10.90;90.10;;;;;;5044051;28;20036;-65
2024/02/01 03:19:39;;;;;;;14.38;2.80;;;10.90;90.10;;;;;;5037414;28;20037;-65
2024/02/01 03:22:05;;;;;;;5.35;2.17;;;10.90;90.10;;;;;;5036033;28;20052;-65
2024/02/01 03:24:31;;;;;;;5.85;3.00;;;10.90;90.20;;;;;;5042188;28;20026;-65
2024/02/01 03:27:00;;;;;;;3.58;2.33;;;10.90;90.10;;;;;;5032515;28;20040;-65
2024/02/01 03:29:28;;;;;;;4.93;1.58;;;10.90;90.10;;;;;;5047733;28;20039;-65
2024/02/01 03:32:05;;;;;;;1.67;1.50;;;10.90;90.10;;;;;;5039787;28;20037;-65
2024/02/01 03:34:31;;;;;;;2.80;1.65;;;10.80;90.00;;;;;;5031904;28;20050;-64
2024/02/01 03:36:58;;;;;;;3.05;1.33;;;10.80;90.00;;;;;;5034806;28;20111;-65
2024/02/01 03:39:24;;;;;;;5.32;1.73;;;10.70;90.00;;;;;;5035703;28;20343;-65
2024/02/01 03:41:50;;;;;;;6.35;2.08;;;10.70;90.00;;;;;;5035724;28;20029;-65
2024/02/01 03:44:17;;;;;;;4.07;1.85;;;10.70;89.90;;;;;;5039955;28;20025;-65
2024/02/01 03:46:43;;;;;;;2.97;1.30;;;10.70;90.10;;;;;;5030401;28;20393;-65
2024/02/01 03:49:09;;;;;;;4.75;1.55;;;10.60;89.60;;;;;;5031061;28;20029;-65
2024/02/01 03:51:36;;;;;;;4.05;1.98;;;10.50;89.60;;;;;;5032803;28;20099;-65
2024/02/01 03:54:11;;;;;;;5.65;1.42;;;10.60;89.60;;;;;;5030812;28;20026;-64
2024/02/01 03:56:37;;;;;;;8.60;2.35;;;10.60;89.50;;;;;;5027996;28;20021;-64
2024/02/01 03:59:05;;;;;;;2.25;1.40;;;10.50;89.90;;;;;;5036376;28;20463;-64
2024/02/01 04:01:31;;;;;;;1.60;1.40;;;10.40;89.30;;;;;;5034908;28;20028;-64
2024/02/01 04:03:57;;;;;;;1.90;1.33;;;10.40;89.10;;;;;;5031443;28;20036;-64
2024/02/01 04:06:24;;;;;;;2.85;1.40;;;10.30;88.90;;;;;;5034432;28;20511;-64
2024/02/01 04:08:51;;;;;;;4.32;1.23;;;10.30;88.80;;;;;;5033286;28;20111;-63
2024/02/01 04:11:17;;;;;;;10.95;1.10;;;10.20;88.40;;;;;;5028760;28;20060;-64
2024/02/01 04:13:43;;;;;;;11.50;0.93;;;10.20;88.10;;;;;;5034859;28;20025;-64
2024/02/01 04:16:09;;;;;;;4.28;1.10;;;10.20;88.10;;;;;;5033445;28;20028;-64
2024/02/01 04:18:35;;;;;;;1.80;0.70;;;10.10;87.90;;;;;;5040685;28;20037;-64
2024/02/01 04:21:01;;;;;;;4.22;0.98;;;10.10;87.90;;;;;;5040283;28;20029;-65
2024/02/01 04:23:29;;;;;;;3.63;1.50;;;10.10;87.70;;;;;;5040837;28;20029;-64
2024/02/01 04:25:55;;;;;;;1.00;0.90;;;10.00;87.60;;;;;;5035532;28;20118;-64
2024/02/01 04:28:21;;;;;;;5.38;1.02;;;10.00;87.60;;;;;;5033508;28;20037;-64
2024/02/01 04:30:50;;;;;;;2.17;1.35;;;9.90;87.50;;;;;;5038665;28;20103;-64
2024/02/01 04:33:22;;;;;;;2.67;0.80;;;9.90;87.40;;;;;;5026374;28;20037;-64
2024/02/01 04:35:48;;;;;;;12.75;2.30;;;9.80;87.30;;;;;;5030536;28;20034;-64
2024/02/01 04:38:14;;;;;;;3.38;1.75;;;9.70;86.80;;;;;;5023254;28;20507;-64
2024/02/01 04:40:43;;;;;;;2.38;1.23;;;9.60;86.70;;;;;;5037878;28;20098;-64
2024/02/01 04:43:09;;;;;;;1.60;1.10;;;9.60;86.60;;;;;;5021310;28;20136;-64
2024/02/01 04:45:35;;;;;;;3.80;1.38;;;9.50;86.60;;;;;;5036309;28;20388;-64
2024/02/01 04:48:01;;;;;;;6.10;1.20;;;9.50;86.60;;;;;;5036647;28;20025;-64
2024/02/01 04:50:26;;;;;;;2.15;1.10;;;9.50;86.40;;;;;;5032118;28;20048;-64
2024/02/01 04:52:53;;;;;;;3.17;1.25;;;9.40;86.30;;;;;;5021337;28;20036;-64
2024/02/01 04:55:18;;;;;;;7.78;2.42;;;9.40;86.40;;;;;;5036310;28;20392;-64
2024/02/01 04:57:45;;;;;;;4.95;0.93;;;9.30;86.30;;;;;;5033045;28;20033;-64
2024/02/01 05:00:14;;;;;;;3.42;1.15;;;9.30;86.20;;;;;;5041631;28;20027;-65
2024/02/01 05:02:41;;;;;;;0.68;0.68;;;9.20;86.30;;;;;;5041426;28;20120;-64
2024/02/01 05:05:10;;;;;;;1.63;0.50;;;9.20;86.10;;;;;;5039420;28;20021;-64
2024/02/01 05:07:36;;;;;;;3.42;0.93;;;9.10;86.00;;;;;;5028089;28;20048;-65
2024/02/01 05:10:03;;;;;;;2.03;1.05;;;9.00;86.00;;;;;;5029018;28;20025;-65
2024/02/01 05:12:28;;;;;;;3.13;1.40;;;9.00;86.10;;;;;;5028417;28;20033;-64
2024/02/01 05:14:54;;;;;;;13.88;1.63;;;8.90;86.00;;;;;;5028524;28;20033;-65
2024/02/01 05:17:20;;;;;;;4.72;1.08;;;8.90;86.10;;;;;;5029143;28;20017;-65
2024/02/01 05:19:46;;;;;;;12.05;1.40;;;8.90;86.00;;;;;;5030726;28;20104;-64
2024/02/01 05:22:11;;;;;;;8.15;2.22;;;8.80;86.40;;;;;;5034014;28;20034;-65
2024/02/01 05:24:37;;;;;;;2.17;0.70;;;8.80;85.90;;;;;;5030246;28;20110;-65
2024/02/01 05:27:09;;;;;;;7.10;1.85;;;8.70;85.80;;;;;;5029577;28;20124;-64
2024/02/01 05:29:36;;;;;;;3.65;1.25;;;8.70;85.70;;;;;;5029945;28;20037;-64
2024/02/01 05:32:06;;;;;;;2.20;1.23;;;8.60;85.50;;;;;;5028464;28;20025;-64
2024/02/01 05:34:33;;;;;;;0.68;0.50;;;8.50;85.50;;;;;;5032178;28;20054;-64
2024/02/01 05:36:59;;;;;;;2.35;0.45;;;8.50;85.50;;;;;;5028646;28;20021;-64
2024/02/01 05:39:25;;;;;;;1.73;0.80;;;8.50;85.40;;;;;;5030647;28;20714;-64
2024/02/01 05:41:54;;;;;;;2.38;0.70;;;8.40;85.30;;;;;;5048149;28;20029;-64
2024/02/01 05:44:21;;;;;;;1.65;0.85;;;8.40;85.20;;;;;;5030954;28;20048;-64
2024/02/01 05:46:48;;;;;;;2.05;0.65;;;8.30;85.10;;;;;;5028519;28;20409;-65
2024/02/01 05:49:18;;;;;;;9.40;0.82;;;8.20;85.10;;;;;;5030254;28;20025;-65
2024/02/01 05:51:45;;;;;;;4.38;0.60;;;8.10;85.00;;;;;;5030986;28;20022;-65
2024/02/01 05:54:11;;;;;;;1.02;0.60;;;8.10;84.90;;;;;;5030515;28;20713;-65
2024/02/01 05:56:36;;;;;;;3.35;0.55;;;8.00;84.80;;;;;;5026571;28;20036;-65
2024/02/01 05:59:02;;;;;;;2.08;1.30;;;8.00;84.80;;;;;;5025759;28;20258;-65
2024/02/01 06:01:28;;;;;;;1.05;0.30;;;7.90;84.70;;;;;;5034583;28;20510;-65
2024/02/01 06:03:53;;;;;;;0.75;0.25;;;7.80;84.60;;;;;;5031407;28;20057;-64
2024/02/01 06:06:21;;;;;;;6.50;0.70;;;7.70;84.50;;;;;;5030317;28;20070;-65
2024/02/01 06:08:47;;;;;;;0.50;0.40;;;7.70;84.50;;;;;;5032233;28;20033;-64
2024/02/01 06:11:12;;;;;;;1.35;0.28;;;7.60;84.50;;;;;;5029677;28;20033;-65
2024/02/01 06:13:38;;;;;;;3.92;0.73;;;7.50;84.50;;;;;;5027088;28;20025;-65
2024/02/01 06:16:04;;;;;;;1.27;0.63;;;7.50;84.50;;;;;;5030668;28;20022;-65
2024/02/01 06:18:32;;;;;;;0.55;0.55;;;7.40;84.30;;;;;;5068619;28;20113;-65
2024/02/01 06:20:58;;;;;;;1.55;0.98;;;7.40;84.30;;;;;;5035953;28;20021;-65
2024/02/01 06:23:23;;;;;;;1.67;0.88;;;7.30;84.30;;;;;;5038740;28;20131;-64
2024/02/01 06:25:49;;;;;;;2.63;0.80;;;7.30;84.20;;;;;;5063538;28;20029;-65
2024/02/01 06:28:15;;;;;;;2.47;0.82;;;7.20;84.20;;;;;;5039955;28;20029;-64
2024/02/01 06:30:41;;;;;;;4.57;1.25;;;7.20;84.10;;;;;;5032963;28;20037;-63
2024/02/01 06:33:06;;;;;;;2.10;0.35;;;7.10;84.00;;;;;;5021391;28;20080;-64
2024/02/01 06:35:33;;;;;;;2.33;0.80;;;7.10;84.00;;;;;;5032521;28;20125;-63
2024/02/01 06:38:15;;;;;;;1.40;0.73;;;7.00;83.90;;;;;;5036677;28;20693;-64
2024/02/01 06:43:51;;;;;;;1.45;0.60;;;7.00;83.90;;;;;;5036856;28;20041;-64
2024/02/01 06:46:08;;;;;;;2.38;0.60;;;6.90;83.80;;;;;;5035466;28;20041;-64
2024/02/01 06:48:43;;;;;;;0.65;0.60;;;6.90;83.90;;;;;;5026317;28;20120;-64
2024/02/01 06:51:25;;;;;;;1.52;0.55;;;6.80;84.10;;;;;;5039278;28;20140;-63
2024/02/01 06:53:57;;;;;;;1.05;0.98;;;6.80;83.60;;;;;;5032287;28;20095;-64
2024/02/01 06:57:13;;;;;;;0.50;0.50;;;6.70;83.60;;;;;;5022964;28;20036;-64
2024/02/01 06:59:30;;;;;;;4.65;1.05;;;6.70;83.60;;;;;;5037597;28;20396;-64
2024/02/01 07:02:14;;;;;;;1.08;0.73;;;6.60;83.60;;;;;;5032534;28;20072;-64
2024/02/01 07:04:50;;;;;;;1.95;0.98;;;6.60;83.70;;;;;;5032484;28;20041;-64
2024/02/01 07:07:26;;;;;;;3.13;1.08;;;6.50;83.60;;;;;;5032082;28;20085;-63
2024/02/01 07:09:58;;;;;;;1.77;0.63;;;6.50;83.30;;;;;;5043469;28;20587;-64
2024/02/01 07:12:42;;;;;;;4.47;1.25;;;6.40;83.30;;;;;;5033063;28;20032;-63
2024/02/01 07:15:30;;;;;;;3.45;1.05;;;6.40;83.20;;;;;;5029937;28;20079;-64
2024/02/01 07:18:14;;;;;;;0.90;0.63;;;6.40;83.30;;;;;;5036265;28;20601;-63
2024/02/01 07:26:16;;;;;;;0.75;0.73;;;6.30;83.20;;;;;;5035331;28;20034;-64
2024/02/01 07:58:52;;;;;;;2.67;0.90;;;6.20;83.10;;;;;;5037058;28;20090;-65
2024/02/01 08:01:18;;;;;;;4.05;1.45;;;6.20;83.30;;;;;;5034924;28;20029;-64
2024/02/01 08:04:12;;;;;;;5.93;1.25;;;6.30;83.20;;;;;;5039655;28;20424;-64
2024/02/01 08:09:24;;;;;;;3.80;1.13;;;6.40;83.20;;;;;;5031253;28;20053;-63
2024/02/01 08:11:49;;;;;;;1.30;0.70;;;6.40;83.20;;;;;;5030726;28;20542;-64
2024/02/01 08:14:15;;;;;;;4.68;0.60;;;6.50;83.10;;;;;;5033502;28;20049;-64
2024/02/01 08:16:43;;;;;;;3.03;1.10;;;6.50;83.00;;;;;;5029367;28;20025;-64
2024/02/01 08:19:09;;;;;;;2.40;1.30;;;6.60;83.00;;;;;;5031882;28;20124;-63
2024/02/01 08:21:37;;;;;;;2.72;0.82;;;6.60;83.00;;;;;;5032384;28;20435;-63
2024/02/01 08:24:12;;;;;;;4.50;0.80;;;6.70;83.10;;;;;;5031920;28;20377;-63
2024/02/01 08:26:37;;;;;;;1.17;0.95;;;6.80;83.10;;;;;;5029052;28;20199;-64
2024/02/01 08:29:06;;;;;;;1.88;0.85;;;6.90;83.10;;;;;;5024206;28;20478;-64
2024/02/01 08:31:38;;;;;;;2.70;1.15;;;6.90;83.00;;;;;;5040721;28;20052;-64
2024/02/01 08:34:14;;;;;;;2.15;0.73;;;7.00;83.10;;;;;;5033437;28;20052;-64
2024/02/01 08:36:41;;;;;;;3.38;0.90;;;7.10;83.20;;;;;;5028339;28;20473;-64
2024/02/01 08:39:10;;;;;;;2.58;1.20;;;7.10;83.10;;;;;;5028502;28;20472;-64
2024/02/01 08:41:37;;;;;;;1.48;1.00;;;7.20;83.10;;;;;;5032780;28;20031;-63
2024/02/01 08:44:06;;;;;;;7.05;1.90;;;7.30;83.10;;;;;;5029312;28;20041;-64
2024/02/01 08:46:32;;;;;;;4.57;1.38;;;7.40;83.00;;;;;;5036908;28;20032;-63
2024/02/01 08:48:58;;;;;;;10.32;2.50;;;7.40;83.00;;;;;;5016153;28;21240;-64
2024/02/01 08:51:25;;;;;;;3.67;1.27;;;7.40;83.00;;;;;;5039186;28;20053;-63
2024/02/01 08:53:52;;;;;;;5.85;1.95;;;7.50;83.10;;;;;;5022326;28;20487;-64
2024/02/01 08:56:20;;;;;;;2.67;1.27;;;7.50;83.20;;;;;;5030045;28;20022;-64
2024/02/01 08:58:49;;;;;;;1.30;1.08;;;7.60;83.10;;;;;;5028710;28;20113;-64
2024/02/01 09:01:22;;;;;;;6.18;1.27;;;7.70;83.10;;;;;;5053064;28;20045;-64
2024/02/01 09:03:49;;;;;;;4.22;1.70;;;7.70;83.00;;;;;;5031013;28;20041;-64
2024/02/01 09:06:16;;;;;;;4.32;1.42;;;7.80;83.10;;;;;;5029317;28;20087;-64
2024/02/01 09:08:43;;;;;;;17.92;1.85;;;7.90;83.00;;;;;;5021361;28;20041;-64
2024/02/01 09:11:12;;;;;;;4.85;2.03;;;8.00;83.00;;;;;;5024981;28;20075;-64
2024/02/01 09:13:45;;;;;;;5.32;2.15;;;8.00;82.90;;;;;;5017143;28;20037;-65
2024/02/01 09:16:20;;;;;;;10.63;1.75;;;8.10;82.90;;;;;;5023082;28;20037;-64
2024/02/01 09:18:45;;;;;;;7.05;1.88;;;8.20;82.80;;;;;;5022097;28;20038;-65
2024/02/01 09:21:12;;;;;;;7.10;1.45;;;8.20;82.80;;;;;;5025513;28;20036;-66
2024/02/01 09:23:38;;;;;;;5.85;1.15;;;8.30;82.60;;;;;;5030109;28;20079;-65
2024/02/01 09:26:04;;;;;;;3.22;1.20;;;8.50;82.70;;;;;;5019253;28;20116;-64
2024/02/01 09:28:30;;;;;;;10.93;1.58;;;8.50;82.30;;;;;;5022349;28;20025;-64
2024/02/01 09:30:57;;;;;;;2.95;1.55;;;8.70;82.40;;;;;;5020525;28;20129;-66
2024/02/01 09:33:27;;;;;;;9.07;1.17;;;8.70;82.10;;;;;;4993843;28;21110;-66
2024/02/01 09:35:53;;;;;;;14.93;2.33;;;8.90;82.60;;;;;;5022214;28;20037;-65
2024/02/01 09:38:19;;;;;;;4.60;1.63;;;9.00;81.50;;;;;;5024574;28;20021;-64
2024/02/01 09:40:48;;;;;;;1.27;0.80;;;9.10;82.10;;;;;;5029831;28;20034;-63
2024/02/01 09:43:20;;;;;;;4.68;1.95;;;9.20;81.50;;;;;;5020525;28;20176;-62
2024/02/01 09:45:54;;;;;;;6.28;1.23;;;9.30;81.30;;;;;;5032399;28;20370;-63
2024/02/01 09:48:20;;;;;;;4.47;1.75;;;9.40;80.60;;;;;;5024326;28;20523;-63
2024/02/01 09:50:51;;;;;;;6.05;1.38;;;9.40;80.70;;;;;;5026840;28;20099;-62
2024/02/01 09:53:21;;;;;;;5.63;1.25;;;9.50;80.50;;;;;;5035437;28;20032;-62
2024/02/01 09:55:49;;;;;;;6.15;1.75;;;9.60;80.30;;;;;;5030162;28;20113;-61
2024/02/01 09:58:16;;;;;;;6.35;2.25;;;9.70;80.10;;;;;;5034062;28;20066;-61
2024/02/01 10:00:41;;;;;;;2.95;1.10;;;9.70;80.00;;;;;;5034088;28;20013;-64
2024/02/01 10:03:07;;;;;;;7.63;1.33;;;9.90;79.90;;;;;;5029553;28;20471;-64
2024/02/01 10:05:34;;;;;;;3.33;1.25;;;9.90;79.50;;;;;;5031545;28;20046;-63
2024/02/01 10:08:00;;;;;;;3.03;1.48;;;10.00;79.30;;;;;;5032476;28;20063;-64
2024/02/01 10:10:26;;;;;;;6.70;1.50;;;10.10;79.30;;;;;;5028396;28;20484;-64
2024/02/01 10:12:52;;;;;;;8.25;2.30;;;10.20;79.10;;;;;;5024233;28;20642;-63
2024/02/01 10:15:27;;;;;;;3.97;1.30;;;10.30;78.80;;;;;;5056202;28;20033;-64
2024/02/01 10:17:53;;;;;;;6.18;1.92;;;10.40;78.70;;;;;;5029301;28;20380;-63
2024/02/01 10:20:47;;;;;;;7.95;2.65;;;10.50;78.30;;;;;;5026747;28;20033;-64
2024/02/01 10:23:13;;;;;;;3.97;1.55;;;10.50;77.90;;;;;;5028991;28;20087;-64
2024/02/01 10:25:49;;;;;;;5.32;2.60;;;10.50;77.80;;;;;;5028027;28;20431;-64
2024/02/01 10:28:20;;;;;;;4.93;1.83;;;10.60;77.90;;;;;;5025535;28;20037;-63
2024/02/01 10:30:47;;;;;;;7.75;1.40;;;10.70;77.90;;;;;;5023238;28;20025;-63
2024/02/01 10:33:15;;;;;;;5.47;1.90;;;10.70;77.20;;;;;;5033261;28;20117;-63
2024/02/01 10:35:48;;;;;;;4.85;1.20;;;10.70;76.80;;;;;;5024103;28;20079;-63
2024/02/01 10:38:23;;;;;;;3.85;1.67;;;10.80;76.60;;;;;;5045659;28;20493;-64
2024/02/01 10:40:58;;;;;;;8.07;1.65;;;10.80;76.60;;;;;;5017410;28;20021;-64
2024/02/01 10:43:28;;;;;;;6.22;1.70;;;11.00;76.50;;;;;;5028407;28;20672;-64
2024/02/01 10:46:08;;;;;;;6.43;2.83;;;11.10;76.20;;;;;;5029630;28;20376;-64
2024/02/01 10:48:46;;;;;;;6.88;2.05;;;11.20;75.70;;;;;;5030185;28;20091;-65
2024/02/01 10:51:13;;;;;;;7.20;1.70;;;11.30;75.00;;;;;;5024692;28;20440;-65
2024/02/01 10:53:43;;;;;;;8.95;1.70;;;11.30;75.10;;;;;;5025569;28;20155;-65
2024/02/01 10:56:16;;;;;;;14.13;2.10;;;11.50;75.10;;;;;;5024892;28;20025;-65
2024/02/01 10:58:47;;;;;;;11.15;2.08;;;11.60;74.50;;;;;;5021145;28;20610;-66
2024/02/01 11:01:18;;;;;;;7.45;1.50;;;11.80;74.20;;;;;;5030279;28;20545;-64
2024/02/01 11:04:06;;;;;;;9.25;2.45;;;11.80;73.50;;;;;;5024105;28;20038;-65
2024/02/01 11:06:33;;;;;;;4.63;1.50;;;11.90;73.20;;;;;;5021215;28;20041;-64
2024/02/01 11:09:18;;;;;;;3.47;1.83;;;11.90;72.40;;;;;;5025421;28;20025;-65
2024/02/01 11:11:50;;;;;;;3.97;1.50;;;12.00;73.10;;;;;;5029515;28;20490;-65
2024/02/01 11:14:20;;;;;;;;;;;12.30;72.60;;;;;;5023810;28;20533;-64
2024/02/01 11:16:50;;;;;;;6.28;2.25;;;12.50;72.20;;;;;;5026143;28;19909;-65
2024/02/01 11:19:25;;;;;;;6.30;2.30;;;12.50;70.30;;;;;;5021020;28;20053;-65
2024/02/01 11:21:57;;;;;;;4.38;1.52;;;12.40;71.80;;;;;;5018672;28;20425;-65
2024/02/01 11:24:25;;;;;;;9.05;2.05;;;12.80;72.00;;;;;;5030305;28;20657;-64
2024/02/01 11:26:55;;;;;;;15.27;1.35;;;13.10;70.20;;;;;;5021798;28;20441;-65
2024/02/01 11:29:24;;;;;;;8.55;2.63;;;13.60;70.30;;;;;;5041191;28;20059;-65
2024/02/01 11:31:58;;;;;;;5.20;1.00;;;14.60;68.40;;;;;;5034122;28;20045;-65
2024/02/01 11:34:27;;;;;;;15.27;2.10;;;16.00;65.00;;;;;;5028307;28;20053;-65
2024/02/01 11:36:54;;;;;;;7.45;1.85;;;16.70;61.80;;;;;;5022970;28;20025;-64
2024/02/01 11:39:20;;;;;;;5.43;1.95;;;16.80;60.00;;;;;;5012941;28;20033;-65
2024/02/01 11:41:48;;;;;;;4.47;1.48;;;16.70;60.00;;;;;;5017987;28;20018;-64
2024/02/01 11:44:15;;;;;;;8.60;2.03;;;16.70;60.40;;;;;;5028849;28;20025;-65
2024/02/01 11:46:48;;;;;;;3.05;1.33;;;16.80;60.10;;;;;;5030062;28;20039;-65
2024/02/01 11:49:19;;;;;;;7.03;3.13;;;17.50;58.40;;;;;;5024705;28;20029;-65
2024/02/01 11:52:13;;;;;;;4.40;1.63;;;18.10;57.10;;;;;;5027014;28;20029;-65
2024/02/01 11:54:46;;;;;;;7.97;2.45;;;18.30;55.50;;;;;;5023587;28;20112;-65
2024/02/01 11:57:17;;;;;;;4.72;1.52;;;17.50;55.70;;;;;;5025991;28;20545;-65
2024/02/01 11:59:44;;;;;;;5.43;1.93;;;16.90;56.90;;;;;;5030148;28;20773;-65
2024/02/01 12:02:10;;;;;;;10.38;2.63;;;16.50;58.20;;;;;;5026964;28;20044;-66
2024/02/01 12:04:41;;;;;;;4.47;1.98;;;16.60;57.70;;;;;;5026119;28;20029;-65
2024/02/01 12:07:08;;;;;;;3.10;1.70;;;17.70;56.90;;;;;;5026865;28;20030;-65
2024/02/01 12:09:38;;;;;;;3.90;1.63;;;18.90;54.70;;;;;;5033461;28;20448;-64
2024/02/01 12:12:04;;;;;;;2.83;1.60;;;20.40;51.50;;;;;;5028104;28;20164;-64
2024/02/01 12:14:30;;;;;;;5.97;1.90;;;21.90;49.60;;;;;;5031342;28;20117;-65
2024/02/01 12:17:00;;;;;;;4.80;2.22;;;22.90;47.30;;;;;;5029313;28;20052;-66
2024/02/01 12:19:27;;;;;;;3.88;1.23;;;22.90;46.00;;;;;;5026675;28;20033;-67
2024/02/01 12:21:54;;;;;;;7.57;1.83;;;21.70;46.90;;;;;;5059312;28;20033;-65
2024/02/01 12:24:32;;;;;;;5.65;1.98;;;21.10;46.90;;;;;;5029933;28;20572;-65
2024/02/01 12:26:58;;;;;;;4.55;2.33;;;20.10;47.90;;;;;;5017484;28;20033;-65
2024/02/01 12:29:26;;;;;;;7.57;2.30;;;19.20;49.40;;;;;;5026779;28;20037;-65
2024/02/01 12:31:52;;;;;;;8.10;2.33;;;18.30;50.90;;;;;;5045864;28;20022;-65
2024/02/01 12:34:19;;;;;;;4.03;1.40;;;17.70;52.10;;;;;;5028317;28;20052;-65
2024/02/01 12:36:45;;;;;;;3.53;1.50;;;17.40;52.90;;;;;;5028665;28;20030;-65
2024/02/01 12:39:13;;;;;;;8.25;1.77;;;17.20;53.20;;;;;;5030556;28;20057;-65
2024/02/01 12:41:39;;;;;;;3.58;1.65;;;17.00;54.30;;;;;;5021671;28;20587;-65
2024/02/01 12:44:07;;;;;;;4.93;1.10;;;16.50;54.70;;;;;;5022108;28;20100;-64
2024/02/01 12:46:33;;;;;;;5.85;1.25;;;15.90;55.90;;;;;;5029277;28;20033;-65
2024/02/01 12:48:59;;;;;;;3.40;1.52;;;15.50;57.10;;;;;;5022902;28;20037;-65
2024/02/01 12:51:27;;;;;;;5.03;1.50;;;15.20;57.70;;;;;;5025983;28;20480;-65
2024/02/01 12:53:58;;;;;;;8.60;2.33;;;15.50;58.60;;;;;;5022502;28;20041;-65
2024/02/01 12:56:25;;;;;;;3.25;1.17;;;15.80;56.70;;;;;;5026374;28;20398;-66
2024/02/01 12:58:54;;;;;;;3.03;1.40;;;15.90;57.50;;;;;;5024223;28;20116;-66
2024/02/01 13:01:20;;;;;;;5.28;1.42;;;16.30;55.80;;;;;;5023242;28;20033;-66
2024/02/01 13:03:49;;;;;;;5.35;1.23;;;15.90;55.20;;;;;;5059437;28;20607;-66
2024/02/01 13:06:18;;;;;;;7.15;1.50;;;15.20;55.90;;;;;;5027950;28;20038;-66
2024/02/01 13:08:44;;;;;;;4.22;0.93;;;14.60;57.60;;;;;;5024950;28;20416;-66
2024/02/01 13:11:11;;;;;;;1.90;1.30;;;14.20;58.80;;;;;;5021076;28;20083;-65
2024/02/01 13:13:37;;;;;;;2.03;0.93;;;13.90;59.40;;;;;;5022300;28;20025;-65
2024/02/01 13:16:04;;;;;;;6.90;2.35;;;13.60;60.30;;;;;;5026283;28;20391;-66
2024/02/01 13:18:30;;;;;;;1.92;1.25;;;13.30;60.90;;;;;;5023684;28;20021;-66
2024/02/01 13:20:56;;;;;;;6.80;1.75;;;13.10;61.50;;;;;;5026787;28;20049;-65
2024/02/01 13:23:23;;;;;;;9.80;1.70;;;13.00;62.10;;;;;;5027618;28;20080;-65
2024/02/01 13:25:50;;;;;;;5.88;1.35;;;12.90;61.80;;;;;;5030268;28;20034;-62
2024/02/01 13:28:16;;;;;;;4.43;1.20;;;12.70;62.30;;;;;;5032651;28;20599;-64
2024/02/01 13:30:45;;;;;;;3.70;1.48;;;12.50;62.50;;;;;;5035353;28;20121;-67
2024/02/01 13:33:11;;;;;;;7.30;2.20;;;12.40;63.10;;;;;;5037206;28;20033;-68
2024/02/01 13:35:37;;;;;;;8.18;1.05;;;12.80;63.90;;;;;;5031527;28;20456;-66
2024/02/01 13:38:09;;;;;;;8.02;2.10;;;13.80;62.40;;;;;;5027464;28;20634;-63